Time;durP1;ratioP1;P1;durP2;ratioP2;P2;SDS_P1;SDS_P2;PMS_P1;PMS_P2;Temp;Humidity;BMP_temperature;BMP_pressure;BME280_temperature;BME280_humidity;BME280_pressure;Samples;Min_cycle;Max_cycle;Signal;HPM_P1;HPM_P2
2023/03/19 00:00:49;;;;;;;;;;;;;;;12.17;90.74;100533.13;7359715;19;19915;-62
2023/03/19 00:03:16;;;;;;;;;;;;;;;12.17;90.15;100539.25;7359468;19;19919;-60
2023/03/19 00:05:49;;;;;;;;;;;;;;;12.16;90.08;100537.59;7359575;19;19923;-61
2023/03/19 00:08:16;;;;;;;;;;;;;;;12.14;89.74;100559.88;7360926;19;19919;-61
2023/03/19 00:10:42;;;;;;;;;;;;;;;12.11;90.08;100558.38;7359658;19;20332;-58
2023/03/19 00:13:09;;;;;;;;;;;;;;;12.10;90.65;100551.44;7357602;19;19930;-63
2023/03/19 00:15:36;;;;;;;;;;;;;;;12.13;91.16;100548.50;7358849;19;19927;-61
2023/03/19 00:18:04;;;;;;;;;;;;;;;12.13;90.89;100556.41;7360964;19;19950;-60
2023/03/19 00:20:31;;;;;;;;;;;;;;;12.12;90.38;100557.38;7359734;19;19925;-60
2023/03/19 00:22:58;;;;;;;;;;;;;;;12.10;89.99;100555.91;7357950;19;19937;-60
2023/03/19 00:25:25;;;;;;;;;;;;;;;12.07;89.85;100562.34;7357127;19;21575;-59
2023/03/19 00:27:53;;;;;;;;;;;;;;;12.05;90.89;100553.78;7356365;19;19930;-61
2023/03/19 00:30:21;;;;;;;;;;;;;;;12.06;90.91;100558.06;7357953;19;19923;-60
2023/03/19 00:32:48;;;;;;;;;;;;;;;12.07;90.37;100566.78;7355212;19;19919;-62
2023/03/19 00:35:14;;;;;;;;;;;;;;;12.06;90.00;100573.88;7362652;19;20021;-61
2023/03/19 00:37:41;;;;;;;;;;;;;;;12.05;90.74;100576.69;7367472;19;20609;-60
2023/03/19 00:40:09;;;;;;;;;;;;;;;12.13;94.37;100574.88;7364059;19;19926;-61
2023/03/19 00:42:36;;;;;;;;;;;;;;;12.27;98.07;100574.16;7365753;19;19942;-62
2023/03/19 00:45:02;;;;;;;;;;;;;;;12.29;97.62;100574.00;7366413;19;20577;-62
2023/03/19 00:47:29;;;;;;;;;;;;;;;12.28;97.05;100582.91;7364558;19;19927;-58
2023/03/19 00:49:56;;;;;;;;;;;;;;;12.24;96.37;100585.03;7366462;19;19948;-63
2023/03/19 00:52:22;;;;;;;;;;;;;;;12.22;95.15;100578.28;7362935;19;20398;-61
2023/03/19 00:54:49;;;;;;;;;;;;;;;12.15;94.57;100583.41;7361738;19;19926;-61
2023/03/19 00:57:16;;;;;;;;;;;;;;;12.14;94.45;100594.94;7366345;19;20802;-60
2023/03/19 00:59:43;;;;;;;;;;;;;;;12.16;94.29;100597.44;7365532;19;19933;-61
2023/03/19 01:02:09;;;;;;;;;;;;;;;12.15;93.76;100609.78;7365994;19;20516;-60
2023/03/19 01:04:36;;;;;;;;;;;;;;;12.15;92.85;100601.88;7364583;19;20360;-59
2023/03/19 01:07:03;;;;;;;;;;;;;;;12.17;92.14;100597.28;7364181;19;20415;-63
2023/03/19 01:09:30;;;;;;;;;;;;;;;12.18;92.04;100598.09;7362729;19;20147;-61
2023/03/19 01:11:57;;;;;;;;;;;;;;;12.18;92.00;100600.72;7364199;19;20501;-63
2023/03/19 01:14:23;;;;;;;;;;;;;;;12.19;92.56;100605.03;7364042;19;19919;-62
2023/03/19 01:16:50;;;;;;;;;;;;;;;12.20;93.02;100614.56;7365043;19;19918;-59
2023/03/19 01:19:18;;;;;;;;;;;;;;;12.17;93.45;100622.81;7366755;19;19926;-60
2023/03/19 01:21:45;;;;;;;;;;;;;;;12.07;91.41;100624.81;7361404;19;19922;-59
2023/03/19 01:24:12;;;;;;;;;;;;;;;11.96;90.70;100649.72;7364796;19;19965;-60
2023/03/19 01:26:39;;;;;;;;;;;;;;;11.82;89.53;100653.84;7366160;19;19922;-62
2023/03/19 01:29:07;;;;;;;;;;;;;;;11.70;89.23;100651.66;7362891;19;20635;-59
2023/03/19 01:31:34;;;;;;;;;;;;;;;11.58;89.89;100644.06;7364892;19;20395;-59
2023/03/19 01:34:01;;;;;;;;;;;;;;;11.46;88.83;100657.75;7362530;19;21101;-57
2023/03/19 01:36:28;;;;;;;;;;;;;;;11.39;88.55;100652.28;7364259;19;19918;-60
2023/03/19 01:38:55;;;;;;;;;;;;;;;11.34;88.60;100656.38;7361231;19;21190;-61
2023/03/19 01:41:22;;;;;;;;;;;;;;;11.30;88.70;100661.16;7364538;19;19915;-60
2023/03/19 01:43:49;;;;;;;;;;;;;;;11.28;89.56;100670.19;7361070;19;19926;-61
2023/03/19 01:46:16;;;;;;;;;;;;;;;11.24;90.03;100682.03;7360671;19;19919;-61
2023/03/19 01:48:50;;;;;;;;;;;;;;;11.18;90.09;100670.34;7361449;19;20419;-64
2023/03/19 01:51:20;;;;;;;;;;;;;;;11.19;91.41;100674.63;7363143;19;19923;-60
2023/03/19 01:53:49;;;;;;;;;;;;;;;11.17;91.35;100681.06;7358919;19;20377;-58
2023/03/19 01:56:21;;;;;;;;;;;;;;;11.14;91.44;100690.91;7363592;19;20276;-63
2023/03/19 01:58:50;;;;;;;;;;;;;;;11.14;91.65;100698.81;7364055;19;20352;-60
2023/03/19 02:01:17;;;;;;;;;;;;;;;11.11;91.78;100712.31;7363448;19;19923;-61
2023/03/19 02:03:45;;;;;;;;;;;;;;;11.04;91.18;100711.28;7363905;19;19926;-62
2023/03/19 02:06:12;;;;;;;;;;;;;;;11.01;91.43;100710.78;7363374;19;19926;-58
2023/03/19 02:08:40;;;;;;;;;;;;;;;10.96;89.92;100710.44;7361016;19;20438;-62
2023/03/19 02:11:12;;;;;;;;;;;;;;;10.92;89.61;100709.13;7363576;19;19926;-60
2023/03/19 02:13:38;;;;;;;;;;;;;;;10.88;89.56;100713.00;7361332;19;19922;-59
2023/03/19 02:16:05;;;;;;;;;;;;;;;10.82;88.78;100705.78;7365292;19;19987;-60
2023/03/19 02:18:32;;;;;;;;;;;;;;;10.77;88.49;100697.53;7363763;19;19938;-61
2023/03/19 02:21:04;;;;;;;;;;;;;;;10.77;89.21;100700.16;7363702;19;19938;-62
2023/03/19 02:23:56;;;;;;;;;;;;;;;10.73;89.00;100702.25;7357910;19;19927;-63
2023/03/19 02:26:25;;;;;;;;;;;;;;;10.65;88.47;100702.22;7360924;19;20525;-61
2023/03/19 02:28:52;;;;;;;;;;;;;;;10.64;88.32;100703.19;7365099;19;20153;-61
2023/03/19 02:31:19;;;;;;;;;;;;;;;10.60;88.16;100699.25;7363926;19;19976;-63
2023/03/19 02:33:59;;;;;;;;;;;;;;;10.59;88.16;100692.31;7361996;19;20305;-59
2023/03/19 02:36:30;;;;;;;;;;;;;;;10.57;87.82;100702.16;7362052;19;21457;-63
2023/03/19 02:39:00;;;;;;;;;;;;;;;10.55;88.66;100701.50;7358873;19;19923;-61
2023/03/19 02:41:27;;;;;;;;;;;;;;;10.51;89.31;100693.13;7364335;19;19922;-62
2023/03/19 02:43:54;;;;;;;;;;;;;;;10.50;89.44;100695.88;7360955;19;20355;-62
2023/03/19 02:46:21;;;;;;;;;;;;;;;10.48;88.58;100701.31;7356701;19;19930;-58
2023/03/19 02:48:48;;;;;;;;;;;;;;;10.48;88.71;100706.56;7360187;19;19935;-60
2023/03/19 02:51:15;;;;;;;;;;;;;;;10.52;88.64;100709.69;7361589;19;19915;-58
2023/03/19 02:53:41;;;;;;;;;;;;;;;10.51;88.56;100716.78;7355230;19;19923;-63
2023/03/19 02:56:08;;;;;;;;;;;;;;;10.53;89.41;100722.72;7361495;19;19934;-61
2023/03/19 02:58:35;;;;;;;;;;;;;;;10.55;90.10;100717.28;7360679;19;19919;-60
2023/03/19 03:01:01;;;;;;;;;;;;;;;10.52;90.05;100717.59;7359080;19;19964;-61
2023/03/19 03:03:29;;;;;;;;;;;;;;;10.51;90.53;100710.69;7360502;19;19934;-60
2023/03/19 03:05:55;;;;;;;;;;;;;;;10.48;90.72;100724.97;7361466;19;19926;-60
2023/03/19 03:08:22;;;;;;;;;;;;;;;10.47;90.33;100719.84;7362229;19;20224;-60
2023/03/19 03:10:49;;;;;;;;;;;;;;;10.49;90.19;100723.16;7360930;19;19923;-61
2023/03/19 03:13:16;;;;;;;;;;;;;;;10.50;90.41;100730.09;7358781;19;19922;-62
2023/03/19 03:15:42;;;;;;;;;;;;;;;10.51;91.18;100729.94;7359912;19;19927;-60
2023/03/19 03:18:09;;;;;;;;;;;;;;;10.51;90.76;100719.44;7358758;19;20324;-61
2023/03/19 03:20:36;;;;;;;;;;;;;;;10.53;91.83;100735.84;7360304;19;21038;-61
2023/03/19 03:23:03;;;;;;;;;;;;;;;10.56;91.63;100726.84;7361011;19;19923;-61
2023/03/19 03:25:29;;;;;;;;;;;;;;;10.56;91.74;100734.75;7359053;19;19930;-60
2023/03/19 03:27:56;;;;;;;;;;;;;;;10.56;91.71;100722.41;7364155;19;19945;-61
2023/03/19 03:30:24;;;;;;;;;;;;;;;10.58;91.43;100741.47;7360618;19;19958;-61
2023/03/19 03:32:50;;;;;;;;;;;;;;;10.58;91.66;100736.22;7360348;19;19961;-61
2023/03/19 03:35:21;;;;;;;;;;;;;;;10.57;91.70;100752.97;7360139;19;19915;-62
2023/03/19 03:37:48;;;;;;;;;;;;;;;10.56;91.22;100753.97;7359862;19;19931;-61
2023/03/19 03:40:15;;;;;;;;;;;;;;;10.55;91.50;100751.50;7359736;19;19923;-61
2023/03/19 03:42:42;;;;;;;;;;;;;;;10.54;91.22;100755.94;7361915;19;19911;-60
2023/03/19 03:45:09;;;;;;;;;;;;;;;10.54;91.62;100758.56;7361075;19;19924;-62
2023/03/19 03:47:36;;;;;;;;;;;;;;;10.52;91.33;100760.50;7358390;19;19919;-59
2023/03/19 03:50:04;;;;;;;;;;;;;;;10.51;91.61;100756.25;7358560;19;19934;-61
2023/03/19 03:52:33;;;;;;;;;;;;;;;10.51;91.74;100753.63;7358002;19;19926;-61
2023/03/19 03:54:59;;;;;;;;;;;;;;;10.50;91.16;100749.34;7355798;19;19915;-62
2023/03/19 03:57:26;;;;;;;;;;;;;;;10.51;91.22;100756.25;7358643;19;19938;-62
2023/03/19 03:59:53;;;;;;;;;;;;;;;10.51;90.67;100761.50;7358866;19;19922;-61
2023/03/19 04:02:21;;;;;;;;;;;;;;;10.50;90.87;100759.84;7357001;19;20355;-63
2023/03/19 04:04:48;;;;;;;;;;;;;;;10.51;91.38;100765.94;7359663;19;19923;-60
2023/03/19 04:07:14;;;;;;;;;;;;;;;10.49;91.60;100773.97;7358893;19;19923;-58
2023/03/19 04:09:41;;;;;;;;;;;;;;;10.48;91.71;100771.50;7356210;19;19922;-65
2023/03/19 04:12:08;;;;;;;;;;;;;;;10.48;91.75;100785.47;7358967;19;19919;-59
2023/03/19 04:14:35;;;;;;;;;;;;;;;10.47;91.47;100785.63;7358239;19;19918;-59
2023/03/19 04:17:02;;;;;;;;;;;;;;;10.50;91.66;100787.97;7358139;19;20769;-62
2023/03/19 04:19:28;;;;;;;;;;;;;;;10.52;91.80;100796.50;7359556;19;21030;-61
2023/03/19 04:21:55;;;;;;;;;;;;;;;10.49;91.40;100797.66;7357693;19;20351;-63
2023/03/19 04:24:22;;;;;;;;;;;;;;;10.47;90.76;100793.50;7357350;19;20430;-60
2023/03/19 04:26:49;;;;;;;;;;;;;;;10.45;90.50;100792.84;7358159;19;20512;-61
2023/03/19 04:29:17;;;;;;;;;;;;;;;10.40;89.66;100801.22;7358405;19;19922;-61
2023/03/19 04:31:44;;;;;;;;;;;;;;;10.40;89.82;100814.34;7357720;19;19943;-61
2023/03/19 04:34:11;;;;;;;;;;;;;;;10.42;90.49;100808.91;7355074;19;19923;-60
2023/03/19 04:36:38;;;;;;;;;;;;;;;10.42;90.60;100820.28;7358226;19;21589;-61
2023/03/19 04:39:05;;;;;;;;;;;;;;;10.42;90.80;100830.78;7354239;19;19919;-62
2023/03/19 04:41:32;;;;;;;;;;;;;;;10.36;89.48;100831.44;7358388;19;19929;-63
2023/03/19 04:43:58;;;;;;;;;;;;;;;10.32;89.37;100843.19;7358885;19;19933;-62
2023/03/19 04:46:25;;;;;;;;;;;;;;;10.28;89.12;100839.22;7357978;19;19915;-63
2023/03/19 04:48:52;;;;;;;;;;;;;;;10.24;88.23;100845.75;7357935;19;19930;-61
2023/03/19 04:51:20;;;;;;;;;;;;;;;10.15;87.33;100847.47;7358540;19;20240;-65
2023/03/19 04:53:47;;;;;;;;;;;;;;;10.11;86.77;100845.25;7354858;19;19915;-62
2023/03/19 04:56:17;;;;;;;;;;;;;;;10.05;86.31;100851.13;7357211;19;19922;-61
2023/03/19 04:58:44;;;;;;;;;;;;;;;10.00;86.04;100861.28;7357425;19;20359;-61
2023/03/19 05:01:11;;;;;;;;;;;;;;;9.94;85.17;100860.06;7357734;19;19994;-61
2023/03/19 05:03:38;;;;;;;;;;;;;;;9.92;85.06;100862.00;7357815;19;21207;-61
2023/03/19 05:06:05;;;;;;;;;;;;;;;9.87;84.64;100867.69;7356198;19;19981;-61
2023/03/19 05:08:32;;;;;;;;;;;;;;;9.82;84.67;100872.56;7356392;19;20615;-62
2023/03/19 05:10:59;;;;;;;;;;;;;;;9.78;84.75;100865.97;7356499;19;21805;-63
2023/03/19 05:13:26;;;;;;;;;;;;;;;9.76;85.10;100867.06;7357314;19;19986;-61
2023/03/19 05:15:54;;;;;;;;;;;;;;;9.74;85.37;100871.66;7356937;19;19945;-61
2023/03/19 05:18:21;;;;;;;;;;;;;;;9.73;85.17;100870.00;7359293;19;19922;-60
2023/03/19 05:20:48;;;;;;;;;;;;;;;9.70;85.21;100878.97;7362015;19;20300;-62
2023/03/19 05:23:14;;;;;;;;;;;;;;;9.66;85.90;100869.75;7365068;19;19934;-62
2023/03/19 05:25:41;;;;;;;;;;;;;;;9.65;85.63;100883.03;7359485;19;19942;-62
2023/03/19 05:28:08;;;;;;;;;;;;;;;9.63;86.02;100885.81;7364960;19;19926;-62
2023/03/19 05:30:35;;;;;;;;;;;;;;;9.60;85.82;100891.31;7361382;19;21008;-61
2023/03/19 05:33:02;;;;;;;;;;;;;;;9.57;86.60;100888.19;7362763;19;20478;-61
2023/03/19 05:35:29;;;;;;;;;;;;;;;9.56;86.60;100882.09;7362576;19;19990;-65
2023/03/19 05:37:56;;;;;;;;;;;;;;;9.55;86.08;100903.28;7363999;19;19918;-62
2023/03/19 05:40:23;;;;;;;;;;;;;;;9.51;86.01;100897.47;7362191;19;21812;-60
2023/03/19 05:42:50;;;;;;;;;;;;;;;9.49;86.27;100906.47;7364579;19;19927;-62
2023/03/19 05:45:16;;;;;;;;;;;;;;;9.49;86.57;100909.09;7364738;19;19919;-61
2023/03/19 05:47:45;;;;;;;;;;;;;;;9.47;86.25;100905.78;7361938;19;19922;-62
2023/03/19 05:50:12;;;;;;;;;;;;;;;9.48;86.55;100912.69;7364048;19;19962;-62
2023/03/19 05:52:39;;;;;;;;;;;;;;;9.48;87.09;100916.13;7362557;19;19933;-63
2023/03/19 05:55:07;;;;;;;;;;;;;;;9.49;87.42;100916.97;7360428;19;19922;-58
2023/03/19 05:57:34;;;;;;;;;;;;;;;9.48;87.36;100920.56;7363968;19;20176;-61
2023/03/19 06:00:01;;;;;;;;;;;;;;;9.48;87.19;100916.13;7364370;19;19923;-62
2023/03/19 06:02:35;;;;;;;;;;;;;;;9.49;87.10;100922.22;7362607;19;19937;-61
2023/03/19 06:05:05;;;;;;;;;;;;;;;9.48;86.76;100931.06;7364467;19;19927;-62
2023/03/19 06:07:31;;;;;;;;;;;;;;;9.45;86.86;100930.38;7363632;19;19949;-60
2023/03/19 06:09:58;;;;;;;;;;;;;;;9.47;87.43;100932.03;7362971;19;20279;-61
2023/03/19 06:12:28;;;;;;;;;;;;;;;9.48;87.08;100934.53;7364188;19;19922;-61
2023/03/19 06:14:55;;;;;;;;;;;;;;;9.48;86.88;100944.19;7364088;19;19978;-61
2023/03/19 06:17:22;;;;;;;;;;;;;;;9.45;86.74;100932.16;7361448;19;19941;-63
2023/03/19 06:19:49;;;;;;;;;;;;;;;9.45;87.29;100940.88;7363440;19;19920;-62
2023/03/19 06:22:16;;;;;;;;;;;;;;;9.47;87.34;100953.03;7362082;19;19939;-61
2023/03/19 06:24:43;;;;;;;;;;;;;;;9.46;86.74;100946.97;7360341;19;20034;-63
2023/03/19 06:27:09;;;;;;;;;;;;;;;9.44;86.38;100948.91;7364273;19;19915;-62
2023/03/19 06:29:36;;;;;;;;;;;;;;;9.42;86.46;100959.56;7361452;19;19926;-61
2023/03/19 06:32:03;;;;;;;;;;;;;;;9.40;86.34;100964.09;7360675;19;19927;-61
2023/03/19 06:34:30;;;;;;;;;;;;;;;9.38;87.27;100965.22;7359477;19;19942;-63
2023/03/19 06:36:56;;;;;;;;;;;;;;;9.38;87.12;100967.88;7361487;19;19930;-62
2023/03/19 06:39:23;;;;;;;;;;;;;;;9.39;86.88;100972.16;7362247;19;19949;-62
2023/03/19 06:41:50;;;;;;;;;;;;;;;9.39;86.28;100990.53;7361497;19;19919;-61
2023/03/19 06:44:17;;;;;;;;;;;;;;;9.36;85.73;100983.75;7361738;19;21743;-60
2023/03/19 06:46:44;;;;;;;;;;;;;;;9.37;86.41;100984.56;7361673;19;19923;-62
2023/03/19 06:49:10;;;;;;;;;;;;;;;9.39;86.87;100994.00;7362864;19;19919;-61
2023/03/19 06:51:37;;;;;;;;;;;;;;;9.43;86.98;100991.91;7360706;19;20075;-62
2023/03/19 06:54:04;;;;;;;;;;;;;;;9.43;87.52;101000.59;7358745;19;19994;-63
2023/03/19 06:56:31;;;;;;;;;;;;;;;9.43;86.28;101000.59;7361932;19;21642;-62
2023/03/19 06:58:58;;;;;;;;;;;;;;;9.43;85.90;101000.59;7361542;19;20416;-61
2023/03/19 07:01:25;;;;;;;;;;;;;;;9.39;85.50;101001.88;7358700;19;20232;-63
2023/03/19 07:03:52;;;;;;;;;;;;;;;9.40;86.53;101005.28;7360698;19;19927;-63
2023/03/19 07:06:18;;;;;;;;;;;;;;;9.39;85.87;101015.00;7360102;19;19919;-62
2023/03/19 07:08:45;;;;;;;;;;;;;;;9.35;85.07;101012.75;7357776;19;20197;-62
2023/03/19 07:11:12;;;;;;;;;;;;;;;9.37;86.17;101024.81;7362312;19;20339;-63
2023/03/19 07:13:39;;;;;;;;;;;;;;;9.41;86.33;101027.97;7359373;19;20373;-62
2023/03/19 07:16:07;;;;;;;;;;;;;;;9.43;85.63;101024.25;7360456;19;19964;-61
2023/03/19 07:18:34;;;;;;;;;;;;;;;9.46;85.07;101036.25;7360716;19;19955;-63
2023/03/19 07:21:01;;;;;;;;;;;;;;;9.50;84.10;101040.25;7362846;19;19922;-62
2023/03/19 07:23:28;;;;;;;;;;;;;;;9.60;84.03;101040.25;7360851;19;20153;-62
2023/03/19 07:25:55;;;;;;;;;;;;;;;9.65;83.32;101038.84;7358905;19;19922;-61
2023/03/19 07:28:22;;;;;;;;;;;;;;;9.69;82.95;101040.22;7360787;19;19918;-62
2023/03/19 07:30:52;;;;;;;;;;;;;;;9.73;82.40;101051.28;7358910;19;20260;-62
2023/03/19 07:33:20;;;;;;;;;;;;;;;9.77;82.95;101056.09;7358338;19;19926;-62
2023/03/19 07:35:47;;;;;;;;;;;;;;;9.78;82.61;101052.50;7361180;19;20383;-62
2023/03/19 07:38:14;;;;;;;;;;;;;;;9.86;82.14;101067.56;7358828;19;20613;-63
2023/03/19 07:40:41;;;;;;;;;;;;;;;9.93;81.95;101075.72;7358633;19;19923;-61
2023/03/19 07:43:24;;;;;;;;;;;;;;;9.97;81.40;101087.59;7359268;19;20042;-61
2023/03/19 07:45:51;;;;;;;;;;;;;;;9.98;81.75;101084.00;7358397;19;19983;-61
2023/03/19 07:48:18;;;;;;;;;;;;;;;10.00;81.67;101092.56;7358037;19;19918;-62
2023/03/19 07:50:45;;;;;;;;;;;;;;;10.00;80.71;101087.31;7358609;19;20371;-61
2023/03/19 07:53:11;;;;;;;;;;;;;;;9.99;79.71;101091.75;7358185;19;19963;-61
2023/03/19 07:55:38;;;;;;;;;;;;;;;10.00;80.82;101087.31;7357149;19;19923;-62
2023/03/19 07:58:05;;;;;;;;;;;;;;;10.00;80.31;101088.16;7359895;19;20896;-61
2023/03/19 08:00:32;;;;;;;;;;;;;;;10.02;80.42;101091.44;7359059;19;19926;-62
2023/03/19 08:02:59;;;;;;;;;;;;;;;10.04;80.72;101094.78;7359371;19;19919;-62
2023/03/19 08:05:26;;;;;;;;;;;;;;;10.05;80.16;101080.66;7357614;19;19927;-62
2023/03/19 08:07:52;;;;;;;;;;;;;;;10.04;79.37;101094.78;7359091;19;19919;-60
2023/03/19 08:10:19;;;;;;;;;;;;;;;10.07;79.78;101094.47;7358126;19;20273;-62
2023/03/19 08:12:46;;;;;;;;;;;;;;;10.17;80.56;101092.69;7359400;19;19933;-62
2023/03/19 08:15:13;;;;;;;;;;;;;;;10.24;79.91;101100.84;7356342;19;20723;-62
2023/03/19 08:17:40;;;;;;;;;;;;;;;10.26;79.42;101098.88;7358387;19;19927;-62
2023/03/19 08:20:10;;;;;;;;;;;;;;;10.31;79.46;101103.72;7359336;19;19929;-61
2023/03/19 08:22:38;;;;;;;;;;;;;;;10.34;79.97;101108.69;7358334;19;20473;-62
2023/03/19 08:25:05;;;;;;;;;;;;;;;10.35;77.71;101112.97;7356957;19;19922;-62
2023/03/19 08:27:34;;;;;;;;;;;;;;;10.35;76.96;101121.69;7358948;19;20178;-61
2023/03/19 08:30:02;;;;;;;;;;;;;;;10.33;76.94;101139.41;7358871;19;20681;-62
2023/03/19 08:32:33;;;;;;;;;;;;;;;10.37;77.88;101119.72;7358867;19;19919;-63
2023/03/19 08:35:01;;;;;;;;;;;;;;;10.42;77.91;101117.50;7356775;19;19994;-61
2023/03/19 08:37:28;;;;;;;;;;;;;;;10.33;75.81;101114.91;7357388;19;19983;-62
2023/03/19 08:39:54;;;;;;;;;;;;;;;10.35;76.18;101128.75;7355373;19;20255;-62
2023/03/19 08:42:21;;;;;;;;;;;;;;;10.40;75.85;101132.63;7358474;19;19923;-63
2023/03/19 08:44:51;;;;;;;;;;;;;;;10.43;76.21;101140.22;7357823;19;19971;-60
2023/03/19 08:47:17;;;;;;;;;;;;;;;10.47;76.03;101131.03;7356487;19;19915;-63
2023/03/19 08:49:44;;;;;;;;;;;;;;;10.52;76.47;101143.75;7357754;19;19930;-63
2023/03/19 08:52:11;;;;;;;;;;;;;;;10.57;76.13;101145.00;7356927;19;19938;-63
2023/03/19 08:54:38;;;;;;;;;;;;;;;10.59;75.64;101150.13;7351317;19;19910;-64
2023/03/19 08:57:05;;;;;;;;;;;;;;;10.62;75.17;101153.28;7366531;19;20541;-63
2023/03/19 08:59:32;;;;;;;;;;;;;;;10.66;74.52;101154.66;7364352;19;19925;-63
2023/03/19 09:02:00;;;;;;;;;;;;;;;10.65;74.17;101155.63;7362385;19;19919;-63
2023/03/19 09:04:27;;;;;;;;;;;;;;;10.68;74.02;101154.50;7363352;19;20014;-62
2023/03/19 09:06:54;;;;;;;;;;;;;;;10.74;74.19;101161.81;7364624;19;20666;-62
2023/03/19 09:09:22;;;;;;;;;;;;;;;10.81;74.67;101165.53;7364565;19;19923;-62
2023/03/19 09:11:49;;;;;;;;;;;;;;;10.88;73.09;101171.03;7367911;19;20013;-61
2023/03/19 09:14:18;;;;;;;;;;;;;;;10.91;73.67;101178.66;7360883;19;20388;-63
2023/03/19 09:16:45;;;;;;;;;;;;;;;10.96;73.30;101179.03;7365944;19;19915;-63
2023/03/19 09:19:12;;;;;;;;;;;;;;;10.98;73.68;101172.63;7364801;19;19921;-64
2023/03/19 09:21:38;;;;;;;;;;;;;;;11.03;73.60;101173.03;7367706;19;19923;-61
2023/03/19 09:24:06;;;;;;;;;;;;;;;11.09;71.89;101166.34;7362678;19;19925;-61
2023/03/19 09:26:32;;;;;;;;;;;;;;;11.14;72.20;101174.63;7364760;19;21546;-61
2023/03/19 09:29:00;;;;;;;;;;;;;;;11.22;72.66;101180.00;7366641;19;20260;-61
2023/03/19 09:31:27;;;;;;;;;;;;;;;11.26;72.76;101181.34;7364905;19;19929;-62
2023/03/19 09:33:55;;;;;;;;;;;;;;;11.34;71.86;101184.06;7356072;19;20002;-62
2023/03/19 09:36:22;;;;;;;;;;;;;;;11.42;70.96;101191.25;7362968;19;20302;-61
2023/03/19 09:38:49;;;;;;;;;;;;;;;11.43;70.65;101184.97;7362072;19;20060;-60
2023/03/19 09:41:16;;;;;;;;;;;;;;;11.41;70.71;101181.69;7365426;19;19927;-62
2023/03/19 09:44:21;;;;;;;;;;;;;;;11.38;70.92;101182.78;7363501;19;19979;-63
2023/03/19 09:46:55;;;;;;;;;;;;;;;11.43;70.45;101188.44;7358983;19;20396;-62
2023/03/19 09:49:22;;;;;;;;;;;;;;;11.44;69.71;101187.47;7361737;19;19919;-64
2023/03/19 09:51:53;;;;;;;;;;;;;;;11.47;70.28;101189.81;7362121;19;20588;-63
2023/03/19 09:54:26;;;;;;;;;;;;;;;11.42;70.34;101192.06;7357634;19;19945;-65
2023/03/19 09:56:54;;;;;;;;;;;;;;;11.47;69.96;101196.91;7364460;19;19947;-61
2023/03/19 09:59:22;;;;;;;;;;;;;;;11.55;69.12;101205.69;7365162;19;20720;-63
2023/03/19 10:01:53;;;;;;;;;;;;;;;11.62;69.14;101197.19;7364123;19;19919;-60
2023/03/19 10:04:52;;;;;;;;;;;;;;;11.66;68.62;101207.28;7361600;19;19922;-62
2023/03/19 10:07:19;;;;;;;;;;;;;;;11.76;68.28;101201.97;7355453;19;19915;-63
2023/03/19 10:10:15;;;;;;;;;;;;;;;11.85;68.18;101198.41;7362830;19;20359;-63
2023/03/19 10:12:48;;;;;;;;;;;;;;;11.94;67.36;101210.69;7361503;19;19923;-63
2023/03/19 10:15:29;;;;;;;;;;;;;;;11.99;69.24;101213.69;7361052;19;19915;-60
2023/03/19 10:18:06;;;;;;;;;;;;;;;12.01;67.62;101211.75;7362800;19;19934;-63
2023/03/19 10:20:45;;;;;;;;;;;;;;;12.04;67.10;101214.06;7354735;19;19979;-60
2023/03/19 10:23:15;;;;;;;;;;;;;;;12.09;67.03;101230.25;7359641;19;19938;-62
2023/03/19 10:25:43;;;;;;;;;;;;;;;12.14;67.84;101241.19;7359335;19;19965;-66
2023/03/19 10:28:14;;;;;;;;;;;;;;;12.12;66.47;101226.50;7360108;19;20017;-63
2023/03/19 10:30:43;;;;;;;;;;;;;;;12.14;66.83;101238.53;7360271;19;20259;-63
2023/03/19 10:33:16;;;;;;;;;;;;;;;12.16;67.58;101227.84;7365392;19;19927;-62
2023/03/19 10:35:44;;;;;;;;;;;;;;;12.28;67.87;101231.91;7354283;19;20525;-62
2023/03/19 10:38:21;;;;;;;;;;;;;;;12.35;65.61;101235.56;7360251;19;19915;-60
2023/03/19 10:40:55;;;;;;;;;;;;;;;12.40;65.77;101233.28;7358177;19;19919;-62
2023/03/19 10:43:24;;;;;;;;;;;;;;;12.39;65.67;101235.09;7362387;19;20471;-61
2023/03/19 10:45:53;;;;;;;;;;;;;;;12.40;65.00;101226.22;7360184;19;19919;-63
2023/03/19 10:48:24;;;;;;;;;;;;;;;12.47;65.55;101234.34;7360532;19;19922;-65
2023/03/19 10:50:57;;;;;;;;;;;;;;;12.47;65.18;101234.34;7360754;19;19923;-60
2023/03/19 10:53:24;;;;;;;;;;;;;;;12.52;65.58;101236.53;7360862;19;20388;-62
2023/03/19 10:55:55;;;;;;;;;;;;;;;12.55;65.03;101241.47;7357709;19;19923;-62
2023/03/19 10:58:24;;;;;;;;;;;;;;;12.57;64.08;101242.16;7361229;19;19923;-60
2023/03/19 11:01:02;;;;;;;;;;;;;;;12.56;64.40;101245.78;7360425;19;19930;-61
2023/03/19 11:03:31;;;;;;;;;;;;;;;12.56;64.61;101249.25;7361630;19;20950;-63
2023/03/19 11:06:17;;;;;;;;;;;;;;;12.55;64.84;101244.94;7360982;19;20014;-62
2023/03/19 11:08:50;;;;;;;;;;;;;;;12.60;66.84;101255.03;7360509;19;19930;-64
2023/03/19 11:11:25;;;;;;;;;;;;;;;12.67;66.04;101256.09;7361887;19;19914;-64
2023/03/19 11:13:51;;;;;;;;;;;;;;;12.69;66.43;101249.69;7362473;19;20336;-63
2023/03/19 11:16:22;;;;;;;;;;;;;;;12.63;65.60;101258.22;7353369;19;21377;-62
2023/03/19 11:18:49;;;;;;;;;;;;;;;12.64;65.75;101251.97;7358370;19;21483;-62
2023/03/19 11:21:29;;;;;;;;;;;;;;;12.74;66.15;101259.78;7363852;19;19915;-62
2023/03/19 11:24:00;;;;;;;;;;;;;;;12.85;66.33;101248.91;7361045;19;19926;-62
2023/03/19 11:26:27;;;;;;;;;;;;;;;12.96;65.03;101248.66;7362576;19;19922;-63
2023/03/19 11:29:00;;;;;;;;;;;;;;;12.97;63.87;101247.66;7362065;19;19927;-62
2023/03/19 11:32:03;;;;;;;;;;;;;;;13.02;62.29;101249.84;7363516;19;19918;-66
2023/03/19 11:34:58;;;;;;;;;;;;;;;13.07;63.43;101258.13;7357419;19;20617;-62
2023/03/19 11:37:45;;;;;;;;;;;;;;;13.12;63.57;101261.13;7359678;19;20548;-62
2023/03/19 11:40:24;;;;;;;;;;;;;;;13.12;62.81;101264.59;7354358;19;20325;-64
2023/03/19 11:43:00;;;;;;;;;;;;;;;13.11;63.70;101267.38;7358170;19;19923;-61
2023/03/19 11:45:39;;;;;;;;;;;;;;;13.11;63.25;101256.81;7360615;19;20232;-62
2023/03/19 11:48:27;;;;;;;;;;;;;;;13.06;63.29;101272.31;7353230;19;19921;-62
2023/03/19 11:50:54;;;;;;;;;;;;;;;13.08;64.74;101268.53;7353878;19;19918;-64
2023/03/19 11:53:24;;;;;;;;;;;;;;;13.12;64.34;101264.59;7357984;19;20314;-62
2023/03/19 11:56:10;;;;;;;;;;;;;;;13.14;63.05;101272.38;7355065;19;19994;-61
2023/03/19 11:58:40;;;;;;;;;;;;;;;13.09;61.89;101275.47;7355778;19;19918;-62
2023/03/19 12:01:26;;;;;;;;;;;;;;;13.06;63.08;101278.41;7356834;19;19925;-62
2023/03/19 12:04:06;;;;;;;;;;;;;;;13.13;63.97;101276.84;7360752;19;19921;-61
2023/03/19 12:06:48;;;;;;;;;;;;;;;13.19;61.93;101283.31;7358119;19;19922;-59
2023/03/19 12:09:23;;;;;;;;;;;;;;;13.19;64.36;101278.03;7353109;19;20636;-63
2023/03/19 12:11:57;;;;;;;;;;;;;;;13.11;62.21;101284.09;7355263;19;20168;-62
2023/03/19 12:14:30;;;;;;;;;;;;;;;13.06;61.50;101281.06;7353387;19;19919;-61
2023/03/19 12:17:03;;;;;;;;;;;;;;;13.06;62.62;101280.22;7356883;19;21611;-62
2023/03/19 12:19:41;;;;;;;;;;;;;;;13.04;62.17;101283.03;7359121;19;19935;-59
2023/03/19 12:22:08;;;;;;;;;;;;;;;13.06;61.96;101286.34;7359304;19;20042;-61
2023/03/19 12:24:36;;;;;;;;;;;;;;;13.03;61.50;101289.31;7355458;19;19939;-62
2023/03/19 12:27:17;;;;;;;;;;;;;;;13.07;62.55;101281.88;7357256;19;20121;-62
2023/03/19 12:29:55;;;;;;;;;;;;;;;13.11;63.48;101283.22;7359231;19;19927;-61
2023/03/19 12:32:38;;;;;;;;;;;;;;;13.13;62.01;101282.13;7366919;19;19926;-60
2023/03/19 12:35:09;;;;;;;;;;;;;;;13.13;61.74;101284.78;7365943;19;19958;-62
2023/03/19 12:37:39;;;;;;;;;;;;;;;13.15;61.18;101290.75;7366221;19;19926;-64
2023/03/19 12:40:18;;;;;;;;;;;;;;;13.18;62.06;101289.56;7365260;19;19965;-60
2023/03/19 12:42:45;;;;;;;;;;;;;;;13.22;61.18;101285.63;7368064;19;19915;-61
2023/03/19 12:45:25;;;;;;;;;;;;;;;13.26;60.92;101281.66;7365860;19;19919;-61
2023/03/19 12:47:57;;;;;;;;;;;;;;;13.28;60.23;101290.28;7365038;19;19911;-62